createdAt,value
2017-06-25T00:02:24.706Z,21.90
2017-06-25T00:04:52.971Z,21.80
2017-06-25T00:07:21.275Z,21.80
2017-06-25T00:09:49.545Z,21.70
2017-06-25T00:12:17.812Z,21.70
2017-06-25T00:14:46.095Z,21.70
2017-06-25T00:17:14.368Z,21.70
2017-06-25T00:19:42.651Z,21.70
2017-06-25T00:22:10.923Z,21.60
2017-06-25T00:24:39.207Z,21.60
2017-06-25T00:27:07.475Z,21.60
2017-06-25T00:29:35.751Z,21.50
2017-06-25T00:32:04.103Z,21.50
2017-06-25T00:34:32.388Z,21.50
2017-06-25T00:37:00.661Z,21.50
2017-06-25T00:39:28.938Z,21.60
2017-06-25T00:41:57.211Z,21.60
2017-06-25T00:44:25.483Z,21.70
2017-06-25T00:46:53.767Z,21.70
2017-06-25T00:49:22.039Z,21.70
2017-06-25T00:51:50.336Z,21.70
2017-06-25T00:54:24.221Z,21.60
2017-06-25T00:56:52.507Z,21.70
2017-06-25T00:59:20.786Z,21.80
2017-06-25T01:01:49.097Z,21.80
2017-06-25T01:04:17.368Z,21.80
2017-06-25T01:06:45.643Z,21.90
2017-06-25T01:09:13.910Z,21.90
2017-06-25T01:11:42.201Z,21.90
2017-06-25T01:14:10.467Z,22.00
2017-06-25T01:16:38.733Z,21.90
2017-06-25T01:19:07.011Z,21.90
2017-06-25T01:21:35.294Z,21.90
2017-06-25T01:24:03.571Z,21.90
2017-06-25T01:26:31.839Z,21.90
2017-06-25T01:29:00.126Z,21.80
2017-06-25T01:31:28.391Z,21.70
2017-06-25T01:33:56.670Z,21.70
2017-06-25T01:36:24.929Z,21.60
2017-06-25T01:38:53.228Z,21.60
2017-06-25T01:41:21.514Z,21.50
2017-06-25T01:43:49.798Z,21.50
2017-06-25T01:46:18.071Z,21.50
2017-06-25T01:48:46.351Z,21.50
2017-06-25T01:51:14.615Z,21.50
2017-06-25T01:53:42.877Z,21.40
2017-06-25T01:56:11.166Z,21.50
2017-06-25T01:58:39.440Z,21.50
2017-06-25T02:01:07.727Z,21.60
2017-06-25T02:03:35.998Z,21.60
2017-06-25T02:06:04.291Z,21.60
2017-06-25T02:08:32.555Z,21.50
2017-06-25T02:11:00.866Z,21.50
2017-06-25T02:13:29.127Z,21.40
2017-06-25T02:15:57.421Z,21.30
2017-06-25T02:18:25.687Z,21.30
2017-06-25T02:20:53.962Z,21.30
2017-06-25T02:23:22.241Z,21.40
2017-06-25T02:25:50.499Z,21.40
2017-06-25T02:28:18.787Z,21.40
2017-06-25T02:30:47.051Z,21.40
2017-06-25T02:33:15.330Z,21.20
2017-06-25T02:35:43.593Z,21.10
2017-06-25T02:38:11.871Z,21.10
2017-06-25T02:40:40.149Z,21.00
2017-06-25T02:43:08.427Z,21.00
2017-06-25T02:45:36.696Z,20.90
2017-06-25T02:48:04.976Z,21.00
2017-06-25T02:50:33.240Z,21.00
2017-06-25T02:53:01.527Z,21.00
2017-06-25T02:55:29.795Z,21.00
2017-06-25T02:57:59.140Z,21.10
2017-06-25T03:00:27.463Z,21.10
2017-06-25T03:02:55.738Z,21.10
2017-06-25T03:05:24.783Z,21.10
2017-06-25T03:07:53.094Z,21.10
2017-06-25T03:10:21.366Z,21.10
2017-06-25T03:12:49.666Z,21.10
2017-06-25T03:15:17.947Z,21.10
2017-06-25T03:17:46.215Z,21.10
2017-06-25T03:20:14.499Z,21.10
2017-06-25T03:22:43.534Z,21.20
2017-06-25T03:25:11.839Z,21.20
2017-06-25T03:27:40.115Z,21.10
2017-06-25T03:30:08.405Z,21.20
2017-06-25T03:32:37.271Z,21.20
2017-06-25T03:35:05.629Z,21.30
2017-06-25T03:37:33.960Z,21.30
2017-06-25T03:40:03.116Z,21.50
2017-06-25T03:42:31.649Z,21.40
2017-06-25T03:45:00.037Z,21.50
2017-06-25T03:47:29.255Z,21.60
2017-06-25T03:49:57.556Z,21.60
2017-06-25T03:52:25.838Z,21.60
2017-06-25T03:54:54.118Z,21.60
2017-06-25T03:57:22.415Z,21.70
2017-06-25T03:59:50.826Z,21.70
2017-06-25T04:02:19.909Z,21.80
2017-06-25T04:04:48.803Z,21.80
2017-06-25T04:07:17.093Z,21.90
2017-06-25T04:09:46.148Z,21.90
2017-06-25T04:12:14.420Z,21.80
2017-06-25T04:14:42.739Z,21.90
2017-06-25T04:17:11.032Z,21.90
2017-06-25T04:19:39.393Z,22.00
2017-06-25T04:22:07.652Z,22.00
2017-06-25T04:24:35.943Z,22.10
2017-06-25T04:27:05.000Z,22.10
2017-06-25T04:29:33.290Z,22.10
2017-06-25T04:32:01.559Z,22.30
2017-06-25T04:34:29.851Z,22.30
2017-06-25T04:36:58.187Z,22.40
2017-06-25T04:39:26.455Z,22.50
2017-06-25T04:41:54.740Z,22.50
2017-06-25T04:44:23.022Z,22.50
2017-06-25T04:46:51.305Z,22.50
2017-06-25T04:49:19.574Z,22.50
2017-06-25T04:51:47.899Z,22.60
2017-06-25T04:54:16.167Z,22.70
2017-06-25T04:56:44.455Z,22.70
2017-06-25T04:59:12.719Z,22.60
2017-06-25T05:01:41.023Z,22.60
2017-06-25T05:04:10.056Z,22.50
2017-06-25T05:06:38.322Z,22.50
2017-06-25T05:09:06.643Z,22.50
2017-06-25T05:11:34.943Z,22.60
2017-06-25T05:14:03.224Z,22.60
2017-06-25T05:16:32.360Z,22.70
2017-06-25T05:19:00.675Z,22.70
2017-06-25T05:21:28.945Z,22.80
2017-06-25T05:23:57.243Z,22.80
2017-06-25T05:26:25.541Z,22.80
2017-06-25T05:28:53.839Z,22.80
2017-06-25T05:31:22.115Z,22.80
2017-06-25T05:33:50.392Z,22.80
2017-06-25T05:36:18.679Z,22.80
2017-06-25T05:38:46.948Z,22.80
2017-06-25T05:41:15.227Z,22.80
2017-06-25T05:43:43.500Z,22.90
2017-06-25T05:46:11.779Z,22.90
2017-06-25T05:48:40.052Z,22.90
2017-06-25T05:51:08.369Z,23.00
2017-06-25T05:53:36.640Z,23.00
2017-06-25T05:56:05.707Z,23.10
2017-06-25T05:58:33.983Z,23.00
2017-06-25T06:01:02.319Z,23.10
2017-06-25T06:03:30.605Z,23.10
2017-06-25T06:05:58.971Z,23.10
2017-06-25T06:08:27.268Z,23.00
2017-06-25T06:10:55.680Z,23.10
2017-06-25T06:13:24.787Z,23.00
2017-06-25T06:15:53.071Z,22.90
2017-06-25T06:18:21.365Z,23.00
2017-06-25T06:20:50.407Z,23.00
2017-06-25T06:23:18.695Z,22.90
2017-06-25T06:25:46.971Z,23.00
2017-06-25T06:28:15.306Z,23.10
2017-06-25T06:30:43.601Z,23.20
2017-06-25T06:33:11.904Z,23.30
2017-06-25T06:35:40.175Z,23.60
2017-06-25T06:38:08.451Z,23.90
2017-06-25T06:40:36.758Z,24.30
2017-06-25T06:43:05.023Z,24.80
2017-06-25T06:45:33.315Z,25.20
2017-06-25T06:48:01.600Z,25.50
2017-06-25T06:50:30.664Z,25.90
2017-06-25T06:52:58.945Z,25.90
2017-06-25T06:55:27.243Z,26.00
2017-06-25T06:57:55.520Z,26.10
2017-06-25T07:00:23.818Z,26.30
2017-06-25T07:02:52.860Z,26.60
2017-06-25T07:05:21.351Z,26.60
2017-06-25T07:07:49.715Z,26.80
2017-06-25T07:10:18.204Z,27.10
2017-06-25T07:12:46.569Z,27.30
2017-06-25T07:15:14.994Z,27.40
2017-06-25T07:17:43.348Z,27.60
2017-06-25T07:20:12.446Z,27.30
2017-06-25T07:22:40.872Z,27.20
2017-06-25T07:25:09.924Z,26.90
2017-06-25T07:27:38.247Z,26.80
2017-06-25T07:30:06.531Z,27.00
2017-06-25T07:32:34.851Z,27.20
2017-06-25T07:35:03.141Z,27.40
2017-06-25T07:37:31.504Z,27.50
2017-06-25T07:39:59.832Z,27.30
2017-06-25T07:42:28.107Z,27.40
2017-06-25T07:44:56.443Z,27.50
2017-06-25T07:47:24.727Z,27.70
2017-06-25T07:49:53.032Z,27.90
2017-06-25T07:52:22.073Z,28.00
2017-06-25T07:54:50.439Z,27.90
2017-06-25T07:57:18.704Z,28.00
2017-06-25T07:59:47.002Z,28.00
2017-06-25T08:02:15.317Z,27.80
2017-06-25T08:04:43.603Z,27.70
2017-06-25T08:07:11.891Z,27.50
2017-06-25T08:09:40.972Z,27.30
2017-06-25T08:12:09.285Z,27.30
2017-06-25T08:14:37.881Z,27.30
2017-06-25T08:17:06.189Z,27.20
2017-06-25T08:19:34.466Z,27.10
2017-06-25T08:22:02.772Z,27.00
2017-06-25T08:24:31.063Z,27.00
2017-06-25T08:26:59.452Z,27.00
2017-06-25T08:29:28.534Z,27.40
2017-06-25T08:31:56.820Z,27.40
2017-06-25T08:34:25.896Z,27.50
2017-06-25T08:36:54.196Z,27.50
2017-06-25T08:39:23.327Z,27.70
2017-06-25T08:41:51.644Z,27.70
2017-06-25T08:44:19.920Z,27.80
2017-06-25T08:46:48.212Z,28.00
2017-06-25T08:49:17.288Z,27.70
2017-06-25T08:51:45.596Z,27.70
2017-06-25T08:54:14.655Z,27.60
2017-06-25T08:56:43.053Z,27.50
2017-06-25T08:59:11.349Z,27.30
2017-06-25T09:01:39.660Z,27.00
2017-06-25T09:04:07.967Z,26.90
2017-06-25T09:06:36.239Z,26.70
2017-06-25T09:09:04.544Z,26.70
2017-06-25T09:11:33.603Z,26.80
2017-06-25T09:14:01.992Z,26.80
2017-06-25T09:16:30.448Z,26.80
2017-06-25T09:18:58.752Z,27.10
2017-06-25T09:21:27.032Z,27.30
2017-06-25T09:23:55.346Z,27.40
2017-06-25T09:26:24.490Z,27.50
2017-06-25T09:28:52.769Z,27.50
2017-06-25T09:31:21.088Z,27.70
2017-06-25T09:33:49.360Z,28.00
2017-06-25T09:36:17.650Z,28.10
2017-06-25T09:38:45.992Z,27.90
2017-06-25T09:41:14.307Z,27.80
2017-06-25T09:43:43.364Z,27.80
2017-06-25T09:46:11.694Z,27.80
2017-06-25T09:48:40.746Z,27.70
2017-06-25T09:51:09.060Z,27.70
2017-06-25T09:53:37.382Z,27.80
2017-06-25T09:56:05.672Z,28.00
2017-06-25T09:58:33.972Z,28.20
2017-06-25T10:01:03.084Z,28.10
2017-06-25T10:03:31.427Z,28.10
2017-06-25T10:05:59.692Z,28.10
2017-06-25T10:08:28.068Z,28.20
2017-06-25T10:10:57.227Z,28.10
2017-06-25T10:13:25.528Z,27.80
2017-06-25T10:15:53.799Z,27.80
2017-06-25T10:18:22.095Z,27.60
2017-06-25T10:20:50.565Z,27.60
2017-06-25T10:23:18.886Z,27.70
2017-06-25T10:25:47.169Z,27.70
2017-06-25T10:28:16.207Z,28.10
2017-06-25T10:30:44.521Z,28.10
2017-06-25T10:33:12.800Z,28.20
2017-06-25T10:35:41.091Z,28.30
2017-06-25T10:38:09.364Z,28.40
2017-06-25T10:40:38.425Z,28.50
2017-06-25T10:43:06.708Z,28.40
2017-06-25T10:45:35.005Z,28.30
2017-06-25T10:48:04.091Z,28.20
2017-06-25T10:50:32.391Z,28.40
2017-06-25T10:53:00.678Z,28.20
2017-06-25T10:55:29.731Z,28.10
2017-06-25T10:57:58.012Z,28.10
2017-06-25T11:00:26.336Z,27.80
2017-06-25T11:02:55.391Z,27.60
2017-06-25T11:05:23.739Z,27.60
2017-06-25T11:07:52.039Z,27.60
2017-06-25T11:10:20.339Z,27.60
2017-06-25T11:12:48.752Z,27.70
2017-06-25T11:15:17.044Z,27.80
2017-06-25T11:17:45.352Z,27.80
2017-06-25T11:20:13.626Z,27.70
2017-06-25T11:22:41.920Z,27.90
2017-06-25T11:25:10.235Z,28.10
2017-06-25T11:27:38.548Z,28.10
2017-06-25T11:30:06.839Z,28.20
2017-06-25T11:32:35.171Z,28.40
2017-06-25T11:35:03.484Z,28.50
2017-06-25T11:37:31.766Z,28.70
2017-06-25T11:40:00.052Z,28.90
2017-06-25T11:42:28.336Z,29.00
2017-06-25T11:44:56.778Z,29.10
2017-06-25T11:47:25.060Z,29.00
2017-06-25T11:49:53.373Z,29.10
2017-06-25T11:52:21.743Z,29.00
2017-06-25T11:54:50.030Z,28.80
2017-06-25T11:57:19.082Z,28.80
2017-06-25T11:59:47.379Z,28.70
2017-06-25T12:02:15.681Z,28.60
2017-06-25T12:04:45.157Z,28.50
2017-06-25T12:07:13.433Z,28.00
2017-06-25T12:09:41.736Z,27.70
2017-06-25T12:12:10.020Z,27.50
2017-06-25T12:14:38.360Z,27.40
2017-06-25T12:17:06.651Z,27.40
2017-06-25T12:19:34.940Z,27.40
2017-06-25T12:22:03.239Z,27.30
2017-06-25T12:24:31.527Z,27.30
2017-06-25T12:26:59.829Z,27.40
2017-06-25T12:29:28.115Z,27.50
2017-06-25T12:31:56.422Z,27.30
2017-06-25T12:34:24.804Z,27.40
2017-06-25T12:36:53.113Z,27.60
2017-06-25T12:39:21.395Z,27.60
2017-06-25T12:41:49.708Z,27.50
2017-06-25T12:44:17.990Z,27.40
2017-06-25T12:46:46.267Z,27.40
2017-06-25T12:49:14.572Z,27.10
2017-06-25T12:51:42.883Z,27.00
2017-06-25T12:54:11.186Z,27.10
2017-06-25T12:56:39.480Z,27.20
2017-06-25T12:59:07.800Z,27.30
2017-06-25T13:01:36.111Z,27.30
2017-06-25T13:04:04.473Z,27.30
2017-06-25T13:06:32.751Z,27.50
2017-06-25T13:09:01.064Z,27.60
2017-06-25T13:11:29.340Z,27.60
2017-06-25T13:13:57.827Z,27.70
2017-06-25T13:16:26.151Z,27.80
2017-06-25T13:18:54.519Z,28.00
2017-06-25T13:21:23.679Z,28.10
2017-06-25T13:23:51.960Z,28.00
2017-06-25T13:26:20.381Z,27.90
2017-06-25T13:28:48.662Z,27.80
2017-06-25T13:31:16.983Z,27.80
2017-06-25T13:33:45.288Z,27.90
2017-06-25T13:36:13.596Z,27.80
2017-06-25T13:38:41.882Z,27.60
2017-06-25T13:41:10.173Z,27.60
2017-06-25T13:43:38.448Z,27.60
2017-06-25T13:46:06.775Z,27.60
2017-06-25T13:48:35.070Z,27.60
2017-06-25T13:51:03.386Z,27.70
2017-06-25T13:53:31.683Z,27.70
2017-06-25T13:56:00.030Z,27.70
2017-06-25T13:58:28.335Z,27.70
2017-06-25T14:00:56.616Z,27.50
2017-06-25T14:03:24.936Z,27.60
2017-06-25T14:05:53.980Z,27.80
2017-06-25T14:08:22.284Z,27.80
2017-06-25T14:10:51.355Z,28.10
2017-06-25T14:13:19.654Z,28.00
2017-06-25T14:15:47.960Z,28.10
2017-06-25T14:18:16.268Z,28.10
2017-06-25T14:20:44.559Z,28.00
2017-06-25T14:23:12.856Z,28.10
2017-06-25T14:25:41.179Z,28.20
2017-06-25T14:28:09.471Z,28.30
2017-06-25T14:30:37.793Z,28.30
2017-06-25T14:33:06.068Z,28.40
2017-06-25T14:35:34.362Z,28.40
2017-06-25T14:38:02.646Z,28.30
2017-06-25T14:40:30.985Z,28.30
2017-06-25T14:43:00.033Z,28.40
2017-06-25T14:45:28.324Z,28.40
2017-06-25T14:47:56.727Z,28.40
2017-06-25T14:50:25.007Z,28.50
2017-06-25T14:52:54.090Z,28.70
2017-06-25T14:55:22.360Z,28.70
2017-06-25T14:57:50.739Z,28.60
2017-06-25T15:00:19.018Z,28.60
2017-06-25T15:02:47.318Z,28.40
2017-06-25T15:05:15.587Z,28.50
2017-06-25T15:07:44.696Z,28.30
2017-06-25T15:10:13.748Z,28.10
2017-06-25T15:12:42.047Z,28.00
2017-06-25T15:15:10.321Z,28.00
2017-06-25T15:17:38.614Z,27.90
2017-06-25T15:20:07.659Z,27.90
2017-06-25T15:22:35.961Z,27.90
2017-06-25T15:25:04.238Z,28.00
2017-06-25T15:27:32.531Z,28.00
2017-06-25T15:30:00.818Z,27.90
2017-06-25T15:32:29.860Z,27.70
2017-06-25T15:34:58.164Z,27.60
2017-06-25T15:37:26.446Z,27.50
2017-06-25T15:39:54.759Z,27.30
2017-06-25T15:42:23.044Z,27.30
2017-06-25T15:44:51.461Z,27.30
2017-06-25T15:47:19.735Z,27.20
2017-06-25T15:49:48.022Z,27.00
2017-06-25T15:52:16.353Z,27.00
2017-06-25T15:54:44.672Z,26.80
2017-06-25T15:57:12.999Z,26.80
2017-06-25T15:59:41.293Z,26.70
2017-06-25T16:02:09.667Z,26.70
2017-06-25T16:04:37.967Z,26.70
2017-06-25T16:07:06.269Z,26.60
2017-06-25T16:09:34.546Z,26.60
2017-06-25T16:12:02.904Z,26.60
2017-06-25T16:14:31.187Z,26.60
2017-06-25T16:16:59.549Z,26.60
2017-06-25T16:19:27.837Z,26.60
2017-06-25T16:21:56.196Z,26.60
2017-06-25T16:24:24.484Z,26.60
2017-06-25T16:26:52.769Z,26.60
2017-06-25T16:29:21.072Z,26.60
2017-06-25T16:31:49.352Z,26.60
2017-06-25T16:34:17.651Z,26.60
2017-06-25T16:36:45.952Z,26.50
2017-06-25T16:39:14.243Z,26.40
2017-06-25T16:41:42.527Z,26.50
2017-06-25T16:44:10.874Z,26.50
2017-06-25T16:46:39.925Z,26.40
2017-06-25T16:49:08.436Z,26.50
2017-06-25T16:51:36.737Z,26.40
2017-06-25T16:54:05.014Z,26.30
2017-06-25T16:56:34.121Z,26.40
2017-06-25T16:59:02.431Z,26.30
2017-06-25T17:01:30.742Z,26.40
2017-06-25T17:03:59.027Z,26.40
2017-06-25T17:06:28.087Z,26.40
2017-06-25T17:08:56.556Z,26.40
2017-06-25T17:11:24.900Z,26.40
2017-06-25T17:13:53.939Z,26.10
2017-06-25T17:16:22.240Z,26.10
2017-06-25T17:18:50.539Z,26.10
2017-06-25T17:21:18.854Z,26.10
2017-06-25T17:23:47.131Z,26.10
2017-06-25T17:26:15.446Z,26.10
2017-06-25T17:28:43.751Z,26.10
2017-06-25T17:31:12.799Z,26.10
2017-06-25T17:33:41.298Z,26.10
2017-06-25T17:36:09.734Z,26.00
2017-06-25T17:38:39.140Z,25.90
2017-06-25T17:41:08.180Z,25.90
2017-06-25T17:43:36.683Z,25.80
2017-06-25T17:46:05.283Z,25.80
2017-06-25T17:48:33.726Z,25.70
2017-06-25T17:51:02.138Z,25.70
2017-06-25T17:53:31.246Z,25.70
2017-06-25T17:55:59.976Z,25.70
2017-06-25T17:58:28.329Z,25.70
2017-06-25T18:00:56.744Z,25.70
2017-06-25T18:03:25.049Z,25.70
2017-06-25T18:05:53.814Z,25.70
2017-06-25T18:08:22.538Z,25.60
2017-06-25T18:10:51.162Z,25.60
2017-06-25T18:13:19.843Z,25.50
2017-06-25T18:15:48.356Z,25.60
2017-06-25T18:18:16.880Z,25.50
2017-06-25T18:20:45.436Z,25.50
2017-06-25T18:23:14.134Z,25.50
2017-06-25T18:25:42.682Z,25.40
2017-06-25T18:28:11.248Z,25.50
2017-06-25T18:30:39.785Z,25.50
2017-06-25T18:33:08.352Z,25.50
2017-06-25T18:35:37.024Z,25.40
2017-06-25T18:38:06.873Z,25.40
2017-06-25T18:40:36.226Z,25.40
2017-06-25T18:43:05.567Z,25.40
2017-06-25T18:45:34.130Z,25.40
2017-06-25T18:48:02.538Z,25.30
2017-06-25T18:50:31.143Z,25.30
2017-06-25T18:53:00.492Z,25.20
2017-06-25T18:55:29.210Z,25.20
2017-06-25T18:57:57.622Z,25.30
2017-06-25T19:00:26.131Z,25.30
2017-06-25T19:02:54.698Z,25.30
2017-06-25T19:05:23.402Z,25.30
2017-06-25T19:07:51.895Z,25.30
2017-06-25T19:10:20.398Z,25.20
2017-06-25T19:12:48.800Z,25.20
2017-06-25T19:15:17.167Z,25.20
2017-06-25T19:17:46.478Z,25.10
2017-06-25T19:20:15.610Z,25.10
2017-06-25T19:22:44.207Z,25.00
2017-06-25T19:25:13.683Z,25.00
2017-06-25T19:27:44.368Z,24.90
2017-06-25T19:30:13.401Z,24.90
2017-06-25T19:32:42.655Z,24.90
2017-06-25T19:35:11.173Z,24.90
2017-06-25T19:37:39.536Z,25.00
2017-06-25T19:40:07.833Z,25.00
2017-06-25T19:42:36.452Z,25.00
2017-06-25T19:45:04.876Z,25.00
2017-06-25T19:47:34.711Z,25.00
2017-06-25T19:50:03.579Z,25.00
2017-06-25T19:52:32.616Z,25.00
2017-06-25T19:55:02.426Z,25.00
2017-06-25T19:57:31.943Z,24.90
2017-06-25T20:00:01.311Z,25.00
2017-06-25T20:02:29.850Z,24.90
2017-06-25T20:04:58.663Z,24.90
2017-06-25T20:07:27.189Z,24.90
2017-06-25T20:09:55.660Z,24.80
2017-06-25T20:12:24.298Z,24.70
2017-06-25T20:14:53.079Z,24.70
2017-06-25T20:17:21.849Z,24.70
2017-06-25T20:19:51.224Z,24.70
2017-06-25T20:22:21.256Z,24.80
2017-06-25T20:24:49.948Z,24.80
2017-06-25T20:27:18.665Z,24.80
2017-06-25T20:29:47.470Z,24.80
2017-06-25T20:32:16.108Z,24.80
2017-06-25T20:34:44.943Z,24.80
2017-06-25T20:37:14.472Z,24.80
2017-06-25T20:39:43.102Z,24.80
2017-06-25T20:42:11.855Z,24.80
2017-06-25T20:44:41.230Z,24.80
2017-06-25T20:47:10.781Z,24.80
2017-06-25T20:49:39.326Z,24.80
2017-06-25T20:52:07.756Z,24.80
2017-06-25T20:54:36.257Z,24.70
2017-06-25T20:57:04.723Z,24.70
2017-06-25T20:59:34.387Z,24.60
2017-06-25T21:02:02.910Z,24.60
2017-06-25T21:04:31.559Z,24.50
2017-06-25T21:07:00.135Z,24.50
2017-06-25T21:09:29.019Z,24.50
2017-06-25T21:11:57.794Z,24.50
2017-06-25T21:14:26.279Z,24.40
2017-06-25T21:16:54.912Z,24.50
2017-06-25T21:19:23.478Z,24.40
2017-06-25T21:21:51.970Z,24.40
2017-06-25T21:24:20.473Z,24.40
2017-06-25T21:26:48.945Z,24.40
2017-06-25T21:29:17.381Z,24.40
2017-06-25T21:31:47.240Z,24.40
2017-06-25T21:34:16.493Z,24.30
2017-06-25T21:36:45.161Z,24.30
2017-06-25T21:39:13.884Z,24.30
2017-06-25T21:41:42.375Z,24.30
2017-06-25T21:44:11.613Z,24.30
2017-06-25T21:46:40.061Z,24.30
2017-06-25T21:49:08.643Z,24.20
2017-06-25T21:51:37.038Z,24.20
2017-06-25T21:54:05.570Z,24.20
2017-06-25T21:56:34.028Z,24.20
2017-06-25T21:59:02.575Z,24.20
2017-06-25T22:01:30.983Z,24.10
2017-06-25T22:03:59.505Z,24.20
2017-06-25T22:06:27.981Z,24.10
2017-06-25T22:08:56.738Z,24.10
2017-06-25T22:11:25.625Z,24.10
2017-06-25T22:13:54.261Z,24.00
2017-06-25T22:16:22.936Z,23.90
2017-06-25T22:18:51.843Z,23.80
2017-06-25T22:21:20.376Z,23.80
2017-06-25T22:23:49.840Z,23.60
2017-06-25T22:26:19.969Z,23.60
2017-06-25T22:28:48.564Z,23.60
2017-06-25T22:31:17.488Z,23.50
2017-06-25T22:33:47.309Z,23.60
2017-06-25T22:36:16.458Z,23.60
2017-06-25T22:38:45.202Z,23.60
2017-06-25T22:41:13.943Z,23.60
2017-06-25T22:43:42.486Z,23.50
2017-06-25T22:46:11.590Z,23.50
2017-06-25T22:48:40.502Z,23.40
2017-06-25T22:51:09.576Z,23.30
2017-06-25T22:53:38.521Z,23.30
2017-06-25T22:56:08.072Z,23.30
2017-06-25T22:58:38.458Z,23.30
2017-06-25T23:01:07.974Z,23.30
2017-06-25T23:03:36.493Z,23.30
2017-06-25T23:08:39.628Z,23.20
2017-06-25T23:11:08.153Z,23.20
2017-06-25T23:13:36.700Z,23.20
2017-06-25T23:16:05.980Z,23.10
2017-06-25T23:18:34.440Z,23.10
2017-06-25T23:21:02.993Z,23.00
2017-06-25T23:23:31.633Z,23.00
2017-06-25T23:26:00.101Z,22.90
2017-06-25T23:28:28.564Z,22.90
2017-06-25T23:30:57.418Z,22.90
2017-06-25T23:33:25.997Z,22.80
2017-06-25T23:35:55.030Z,22.80
2017-06-25T23:38:23.717Z,22.70
2017-06-25T23:40:53.292Z,22.70
2017-06-25T23:43:22.104Z,22.70
2017-06-25T23:45:51.525Z,22.70
2017-06-25T23:48:20.714Z,22.60
2017-06-25T23:50:49.258Z,22.60
2017-06-25T23:53:18.001Z,22.60
2017-06-25T23:55:46.565Z,22.60
2017-06-25T23:58:15.189Z,22.50
